sensor_id;sensor_type;location;lat;lon;timestamp;temperature;humidity
11656;DHT22;5884;43.618;1.438;2023-12-20T05:46:39;8.30;99.90
11656;DHT22;5884;43.618;1.438;2023-12-20T05:49:06;8.30;99.90
11656;DHT22;5884;43.618;1.438;2023-12-20T05:51:33;8.30;99.90
11656;DHT22;5884;43.618;1.438;2023-12-20T05:54:00;8.40;99.90
11656;DHT22;5884;43.618;1.438;2023-12-20T05:56:29;8.40;99.90
11656;DHT22;5884;43.618;1.438;2023-12-20T05:58:56;8.40;99.90
11656;DHT22;5884;43.618;1.438;2023-12-20T06:01:24;8.40;99.90
11656;DHT22;5884;43.618;1.438;2023-12-20T06:03:52;8.40;99.90
11656;DHT22;5884;43.618;1.438;2023-12-20T06:06:20;8.50;99.90
11656;DHT22;5884;43.618;1.438;2023-12-20T06:08:47;8.40;99.90
11656;DHT22;5884;43.618;1.438;2023-12-20T06:11:14;8.40;99.90
11656;DHT22;5884;43.618;1.438;2023-12-20T06:13:41;8.40;99.90
11656;DHT22;5884;43.618;1.438;2023-12-20T06:16:08;8.40;99.90
11656;DHT22;5884;43.618;1.438;2023-12-20T06:18:35;8.50;99.90
11656;DHT22;5884;43.618;1.438;2023-12-20T06:21:04;8.40;99.90
11656;DHT22;5884;43.618;1.438;2023-12-20T06:23:32;8.50;99.90
11656;DHT22;5884;43.618;1.438;2023-12-20T06:25:59;8.50;99.90
11656;DHT22;5884;43.618;1.438;2023-12-20T06:28:27;8.60;99.90
11656;DHT22;5884;43.618;1.438;2023-12-20T06:30:54;8.50;99.90
11656;DHT22;5884;43.618;1.438;2023-12-20T06:33:22;8.50;99.90
11656;DHT22;5884;43.618;1.438;2023-12-20T06:35:49;8.60;99.90
11656;DHT22;5884;43.618;1.438;2023-12-20T06:38:18;8.70;99.90
11656;DHT22;5884;43.618;1.438;2023-12-20T06:40:46;8.70;99.90
11656;DHT22;5884;43.618;1.438;2023-12-20T06:43:13;8.70;99.90
11656;DHT22;5884;43.618;1.438;2023-12-20T06:45:40;8.70;99.90
11656;DHT22;5884;43.618;1.438;2023-12-20T06:48:07;8.80;99.90
11656;DHT22;5884;43.618;1.438;2023-12-20T06:50:36;8.80;99.90
11656;DHT22;5884;43.618;1.438;2023-12-20T06:53:05;8.80;99.90
11656;DHT22;5884;43.618;1.438;2023-12-20T06:55:35;8.90;99.90
11656;DHT22;5884;43.618;1.438;2023-12-20T06:58:03;8.90;99.90
11656;DHT22;5884;43.618;1.438;2023-12-20T07:00:30;8.90;99.90
11656;DHT22;5884;43.618;1.438;2023-12-20T07:02:59;9.00;99.90
11656;DHT22;5884;43.618;1.438;2023-12-20T07:05:26;9.00;99.90
11656;DHT22;5884;43.618;1.438;2023-12-20T07:07:53;9.00;99.90
11656;DHT22;5884;43.618;1.438;2023-12-20T07:10:20;9.10;99.90
11656;DHT22;5884;43.618;1.438;2023-12-20T07:12:49;9.10;99.90
11656;DHT22;5884;43.618;1.438;2023-12-20T07:15:17;9.10;99.90
11656;DHT22;5884;43.618;1.438;2023-12-20T07:17:44;9.00;99.90
11656;DHT22;5884;43.618;1.438;2023-12-20T07:20:11;9.00;99.90
11656;DHT22;5884;43.618;1.438;2023-12-20T07:22:39;9.00;99.90
11656;DHT22;5884;43.618;1.438;2023-12-20T07:25:07;9.00;99.90
11656;DHT22;5884;43.618;1.438;2023-12-20T07:27:34;8.90;99.90
11656;DHT22;5884;43.618;1.438;2023-12-20T07:30:03;8.90;99.90
11656;DHT22;5884;43.618;1.438;2023-12-20T07:32:31;8.90;99.90
11656;DHT22;5884;43.618;1.438;2023-12-20T07:34:59;8.90;99.90
11656;DHT22;5884;43.618;1.438;2023-12-20T07:37:26;8.80;99.90
11656;DHT22;5884;43.618;1.438;2023-12-20T07:39:53;8.80;99.90
11656;DHT22;5884;43.618;1.438;2023-12-20T07:42:21;8.80;99.90
11656;DHT22;5884;43.618;1.438;2023-12-20T07:44:48;8.80;99.90
11656;DHT22;5884;43.618;1.438;2023-12-20T07:47:17;8.80;99.90
11656;DHT22;5884;43.618;1.438;2023-12-20T07:49:47;8.80;99.90
11656;DHT22;5884;43.618;1.438;2023-12-20T07:52:14;8.80;99.90
11656;DHT22;5884;43.618;1.438;2023-12-20T07:54:41;8.70;99.90
11656;DHT22;5884;43.618;1.438;2023-12-20T07:57:09;8.70;99.90
11656;DHT22;5884;43.618;1.438;2023-12-20T07:59:37;8.70;99.90
11656;DHT22;5884;43.618;1.438;2023-12-20T08:02:04;8.70;99.90
11656;DHT22;5884;43.618;1.438;2023-12-20T08:04:33;8.60;99.90
11656;DHT22;5884;43.618;1.438;2023-12-20T08:07:00;8.70;99.90
11656;DHT22;5884;43.618;1.438;2023-12-20T08:09:27;8.70;99.90
11656;DHT22;5884;43.618;1.438;2023-12-20T08:11:55;8.60;99.90
11656;DHT22;5884;43.618;1.438;2023-12-20T08:14:22;8.60;99.90
11656;DHT22;5884;43.618;1.438;2023-12-20T08:16:49;8.60;99.90
11656;DHT22;5884;43.618;1.438;2023-12-20T08:19:16;8.60;99.90
11656;DHT22;5884;43.618;1.438;2023-12-20T08:21:45;8.50;99.90
11656;DHT22;5884;43.618;1.438;2023-12-20T08:24:12;8.50;99.90
11656;DHT22;5884;43.618;1.438;2023-12-20T08:26:39;8.50;99.90
11656;DHT22;5884;43.618;1.438;2023-12-20T08:29:06;8.50;99.90
11656;DHT22;5884;43.618;1.438;2023-12-20T08:31:33;8.50;99.90
11656;DHT22;5884;43.618;1.438;2023-12-20T08:34:00;8.50;99.90
11656;DHT22;5884;43.618;1.438;2023-12-20T08:36:28;8.60;99.90
11656;DHT22;5884;43.618;1.438;2023-12-20T08:38:56;8.50;99.90
11656;DHT22;5884;43.618;1.438;2023-12-20T08:41:23;8.50;99.90
11656;DHT22;5884;43.618;1.438;2023-12-20T08:43:50;8.50;99.90
11656;DHT22;5884;43.618;1.438;2023-12-20T08:46:17;8.50;99.90
11656;DHT22;5884;43.618;1.438;2023-12-20T08:48:45;8.50;99.90
11656;DHT22;5884;43.618;1.438;2023-12-20T08:51:13;8.50;99.90
11656;DHT22;5884;43.618;1.438;2023-12-20T08:53:40;8.50;99.90
11656;DHT22;5884;43.618;1.438;2023-12-20T08:56:08;8.50;99.90
11656;DHT22;5884;43.618;1.438;2023-12-20T08:58:36;8.50;99.90
11656;DHT22;5884;43.618;1.438;2023-12-20T09:01:03;8.60;99.90
11656;DHT22;5884;43.618;1.438;2023-12-20T09:03:30;8.60;99.90
11656;DHT22;5884;43.618;1.438;2023-12-20T09:05:57;8.60;99.90
11656;DHT22;5884;43.618;1.438;2023-12-20T09:08:24;8.50;99.90
11656;DHT22;5884;43.618;1.438;2023-12-20T09:10:51;8.60;99.90
11656;DHT22;5884;43.618;1.438;2023-12-20T09:13:20;8.60;99.90
11656;DHT22;5884;43.618;1.438;2023-12-20T09:15:47;8.60;99.90
11656;DHT22;5884;43.618;1.438;2023-12-20T09:18:14;8.60;99.90
11656;DHT22;5884;43.618;1.438;2023-12-20T09:20:41;8.60;99.90
11656;DHT22;5884;43.618;1.438;2023-12-20T09:23:09;8.60;99.90
11656;DHT22;5884;43.618;1.438;2023-12-20T09:25:36;8.60;99.90
11656;DHT22;5884;43.618;1.438;2023-12-20T09:28:03;8.70;99.90
11656;DHT22;5884;43.618;1.438;2023-12-20T09:30:35;8.70;99.90
11656;DHT22;5884;43.618;1.438;2023-12-20T09:33:05;8.70;99.90
11656;DHT22;5884;43.618;1.438;2023-12-20T09:35:32;8.80;99.90
11656;DHT22;5884;43.618;1.438;2023-12-20T09:37:59;8.80;99.90
11656;DHT22;5884;43.618;1.438;2023-12-20T09:40:27;8.80;99.90
11656;DHT22;5884;43.618;1.438;2023-12-20T09:42:57;8.90;99.90
11656;DHT22;5884;43.618;1.438;2023-12-20T09:45:25;8.90;99.90
11656;DHT22;5884;43.618;1.438;2023-12-20T09:47:54;8.80;99.90
11656;DHT22;5884;43.618;1.438;2023-12-20T09:50:22;8.90;99.90
11656;DHT22;5884;43.618;1.438;2023-12-20T09:52:50;9.00;99.90
11656;DHT22;5884;43.618;1.438;2023-12-20T09:55:19;9.10;99.90
11656;DHT22;5884;43.618;1.438;2023-12-20T09:57:47;9.10;99.90
11656;DHT22;5884;43.618;1.438;2023-12-20T10:00:15;9.20;99.90
11656;DHT22;5884;43.618;1.438;2023-12-20T10:02:48;9.20;99.90
11656;DHT22;5884;43.618;1.438;2023-12-20T10:05:18;9.20;99.90
11656;DHT22;5884;43.618;1.438;2023-12-20T10:07:50;9.20;99.90
11656;DHT22;5884;43.618;1.438;2023-12-20T10:10:17;9.30;99.90
11656;DHT22;5884;43.618;1.438;2023-12-20T10:13:01;9.20;99.90
11656;DHT22;5884;43.618;1.438;2023-12-20T10:15:29;9.20;99.90
11656;DHT22;5884;43.618;1.438;2023-12-20T10:17:57;9.20;99.90
11656;DHT22;5884;43.618;1.438;2023-12-20T10:20:26;9.30;99.90
11656;DHT22;5884;43.618;1.438;2023-12-20T10:22:54;9.30;99.90
11656;DHT22;5884;43.618;1.438;2023-12-20T10:25:22;9.30;99.90
11656;DHT22;5884;43.618;1.438;2023-12-20T10:27:50;9.40;99.90
11656;DHT22;5884;43.618;1.438;2023-12-20T10:30:18;9.40;99.90
11656;DHT22;5884;43.618;1.438;2023-12-20T10:32:45;9.40;99.90
11656;DHT22;5884;43.618;1.438;2023-12-20T10:35:13;9.60;99.90
11656;DHT22;5884;43.618;1.438;2023-12-20T10:37:42;9.60;99.90
11656;DHT22;5884;43.618;1.438;2023-12-20T10:40:10;9.60;99.90
11656;DHT22;5884;43.618;1.438;2023-12-20T10:42:39;9.80;99.90
11656;DHT22;5884;43.618;1.438;2023-12-20T10:45:07;9.80;99.90
11656;DHT22;5884;43.618;1.438;2023-12-20T10:47:36;9.90;99.90
11656;DHT22;5884;43.618;1.438;2023-12-20T10:50:06;9.90;99.90
11656;DHT22;5884;43.618;1.438;2023-12-20T10:52:36;9.90;99.90
11656;DHT22;5884;43.618;1.438;2023-12-20T10:55:05;10.00;99.90
11656;DHT22;5884;43.618;1.438;2023-12-20T10:57:35;10.00;99.90
11656;DHT22;5884;43.618;1.438;2023-12-20T11:00:03;9.90;99.90
11656;DHT22;5884;43.618;1.438;2023-12-20T11:02:33;9.80;99.90
11656;DHT22;5884;43.618;1.438;2023-12-20T11:05:10;9.80;99.90
11656;DHT22;5884;43.618;1.438;2023-12-20T11:07:49;10.10;99.90
11656;DHT22;5884;43.618;1.438;2023-12-20T11:10:23;10.20;99.90
11656;DHT22;5884;43.618;1.438;2023-12-20T11:12:54;10.30;99.90
11656;DHT22;5884;43.618;1.438;2023-12-20T11:15:25;10.40;99.90
11656;DHT22;5884;43.618;1.438;2023-12-20T11:17:55;10.50;99.90
11656;DHT22;5884;43.618;1.438;2023-12-20T11:20:23;10.50;99.90
11656;DHT22;5884;43.618;1.438;2023-12-20T11:22:54;10.40;99.90
11656;DHT22;5884;43.618;1.438;2023-12-20T11:25:23;10.30;99.90
11656;DHT22;5884;43.618;1.438;2023-12-20T11:28:07;10.20;99.90
11656;DHT22;5884;43.618;1.438;2023-12-20T11:30:46;9.80;99.90
11656;DHT22;5884;43.618;1.438;2023-12-20T11:33:13;9.70;99.90
11656;DHT22;5884;43.618;1.438;2023-12-20T11:35:46;9.60;99.90
11656;DHT22;5884;43.618;1.438;2023-12-20T11:38:14;9.50;99.90
11656;DHT22;5884;43.618;1.438;2023-12-20T11:40:43;9.40;99.90
11656;DHT22;5884;43.618;1.438;2023-12-20T11:43:10;9.40;99.90
11656;DHT22;5884;43.618;1.438;2023-12-20T11:45:37;9.50;99.90
11656;DHT22;5884;43.618;1.438;2023-12-20T11:48:17;9.50;99.90
11656;DHT22;5884;43.618;1.438;2023-12-20T11:50:45;9.40;99.90
11656;DHT22;5884;43.618;1.438;2023-12-20T11:53:12;9.40;99.90
11656;DHT22;5884;43.618;1.438;2023-12-20T11:55:39;9.40;99.90
11656;DHT22;5884;43.618;1.438;2023-12-20T11:58:08;9.40;99.90
11656;DHT22;5884;43.618;1.438;2023-12-20T12:00:35;9.40;99.90
11656;DHT22;5884;43.618;1.438;2023-12-20T12:03:03;9.40;99.90
11656;DHT22;5884;43.618;1.438;2023-12-20T12:05:31;9.40;99.90
11656;DHT22;5884;43.618;1.438;2023-12-20T12:07:58;9.50;99.90
11656;DHT22;5884;43.618;1.438;2023-12-20T12:10:25;9.50;99.90
11656;DHT22;5884;43.618;1.438;2023-12-20T12:12:53;9.50;99.90
11656;DHT22;5884;43.618;1.438;2023-12-20T12:15:21;9.70;99.90
11656;DHT22;5884;43.618;1.438;2023-12-20T12:17:53;9.90;99.90
11656;DHT22;5884;43.618;1.438;2023-12-20T12:20:21;10.10;99.90
11656;DHT22;5884;43.618;1.438;2023-12-20T12:22:57;10.30;99.90
11656;DHT22;5884;43.618;1.438;2023-12-20T12:25:25;10.50;99.90
11656;DHT22;5884;43.618;1.438;2023-12-20T12:27:53;10.60;99.90
11656;DHT22;5884;43.618;1.438;2023-12-20T12:30:22;10.70;99.90
11656;DHT22;5884;43.618;1.438;2023-12-20T12:32:49;10.80;99.90
11656;DHT22;5884;43.618;1.438;2023-12-20T12:35:17;10.50;99.90
11656;DHT22;5884;43.618;1.438;2023-12-20T12:37:45;10.20;99.90
11656;DHT22;5884;43.618;1.438;2023-12-20T12:40:13;9.90;99.90
11656;DHT22;5884;43.618;1.438;2023-12-20T12:42:42;9.50;99.90
11656;DHT22;5884;43.618;1.438;2023-12-20T12:45:10;9.40;99.90
11656;DHT22;5884;43.618;1.438;2023-12-20T12:47:39;9.40;99.90
11656;DHT22;5884;43.618;1.438;2023-12-20T12:50:07;9.60;99.90
11656;DHT22;5884;43.618;1.438;2023-12-20T12:52:35;9.80;99.90
11656;DHT22;5884;43.618;1.438;2023-12-20T12:55:03;9.70;99.90
11656;DHT22;5884;43.618;1.438;2023-12-20T12:57:31;9.70;99.90
11656;DHT22;5884;43.618;1.438;2023-12-20T12:59:59;9.50;99.90
11656;DHT22;5884;43.618;1.438;2023-12-20T13:02:26;9.40;99.90
11656;DHT22;5884;43.618;1.438;2023-12-20T13:04:54;9.60;99.90
11656;DHT22;5884;43.618;1.438;2023-12-20T13:07:21;9.90;99.90
11656;DHT22;5884;43.618;1.438;2023-12-20T13:09:48;9.80;99.90
11656;DHT22;5884;43.618;1.438;2023-12-20T13:12:16;9.70;99.90
11656;DHT22;5884;43.618;1.438;2023-12-20T13:14:43;9.60;99.90
11656;DHT22;5884;43.618;1.438;2023-12-20T13:17:11;9.50;99.90
11656;DHT22;5884;43.618;1.438;2023-12-20T13:19:38;9.40;99.90
11656;DHT22;5884;43.618;1.438;2023-12-20T13:22:06;9.50;99.90
11656;DHT22;5884;43.618;1.438;2023-12-20T13:24:34;9.50;99.90
11656;DHT22;5884;43.618;1.438;2023-12-20T13:27:01;9.40;99.90
11656;DHT22;5884;43.618;1.438;2023-12-20T13:29:28;9.30;99.90
11656;DHT22;5884;43.618;1.438;2023-12-20T13:31:55;9.40;99.90
11656;DHT22;5884;43.618;1.438;2023-12-20T13:34:24;9.30;99.90
11656;DHT22;5884;43.618;1.438;2023-12-20T13:36:51;9.30;99.90
11656;DHT22;5884;43.618;1.438;2023-12-20T13:39:20;9.20;99.90
11656;DHT22;5884;43.618;1.438;2023-12-20T13:41:47;9.00;99.90
11656;DHT22;5884;43.618;1.438;2023-12-20T13:44:14;9.00;99.90
11656;DHT22;5884;43.618;1.438;2023-12-20T13:46:41;8.90;99.90
11656;DHT22;5884;43.618;1.438;2023-12-20T13:49:09;8.90;99.90
11656;DHT22;5884;43.618;1.438;2023-12-20T13:51:37;8.90;99.90
11656;DHT22;5884;43.618;1.438;2023-12-20T13:54:05;8.90;99.90
11656;DHT22;5884;43.618;1.438;2023-12-20T13:56:34;9.00;99.90
11656;DHT22;5884;43.618;1.438;2023-12-20T13:59:01;9.00;99.90
11656;DHT22;5884;43.618;1.438;2023-12-20T14:01:28;8.90;99.90
11656;DHT22;5884;43.618;1.438;2023-12-20T14:03:55;9.00;99.90
11656;DHT22;5884;43.618;1.438;2023-12-20T14:06:23;9.00;99.90
11656;DHT22;5884;43.618;1.438;2023-12-20T14:08:50;8.90;99.90
11656;DHT22;5884;43.618;1.438;2023-12-20T14:11:17;9.00;99.90
11656;DHT22;5884;43.618;1.438;2023-12-20T14:13:46;9.00;99.90
11656;DHT22;5884;43.618;1.438;2023-12-20T14:16:13;9.10;99.90
11656;DHT22;5884;43.618;1.438;2023-12-20T14:18:41;9.10;99.90
11656;DHT22;5884;43.618;1.438;2023-12-20T14:21:08;9.10;99.90
11656;DHT22;5884;43.618;1.438;2023-12-20T14:23:35;8.90;99.90
11656;DHT22;5884;43.618;1.438;2023-12-20T14:26:03;8.90;99.90
11656;DHT22;5884;43.618;1.438;2023-12-20T14:28:30;8.90;99.90
11656;DHT22;5884;43.618;1.438;2023-12-20T14:30:58;8.90;99.90
11656;DHT22;5884;43.618;1.438;2023-12-20T14:33:25;8.80;99.90
11656;DHT22;5884;43.618;1.438;2023-12-20T14:35:53;8.80;99.90
11656;DHT22;5884;43.618;1.438;2023-12-20T14:38:20;8.80;99.90
11656;DHT22;5884;43.618;1.438;2023-12-20T14:40:47;8.80;99.90
11656;DHT22;5884;43.618;1.438;2023-12-20T14:43:14;8.80;99.90
11656;DHT22;5884;43.618;1.438;2023-12-20T14:45:42;8.90;99.90
11656;DHT22;5884;43.618;1.438;2023-12-20T14:48:10;8.90;99.90
11656;DHT22;5884;43.618;1.438;2023-12-20T14:50:37;8.90;99.90
11656;DHT22;5884;43.618;1.438;2023-12-20T14:53:06;8.90;99.90
11656;DHT22;5884;43.618;1.438;2023-12-20T14:55:33;8.90;99.90
11656;DHT22;5884;43.618;1.438;2023-12-20T14:58:00;8.80;99.90
11656;DHT22;5884;43.618;1.438;2023-12-20T15:00:28;8.90;99.90
11656;DHT22;5884;43.618;1.438;2023-12-20T15:02:55;8.80;99.90
11656;DHT22;5884;43.618;1.438;2023-12-20T15:05:24;8.80;99.90
11656;DHT22;5884;43.618;1.438;2023-12-20T15:07:52;8.70;99.90
11656;DHT22;5884;43.618;1.438;2023-12-20T15:10:19;8.70;99.90
11656;DHT22;5884;43.618;1.438;2023-12-20T15:12:46;8.70;99.90
11656;DHT22;5884;43.618;1.438;2023-12-20T15:15:14;8.70;99.90
11656;DHT22;5884;43.618;1.438;2023-12-20T15:17:41;8.70;99.90
11656;DHT22;5884;43.618;1.438;2023-12-20T15:20:09;8.70;99.90
11656;DHT22;5884;43.618;1.438;2023-12-20T15:22:38;8.80;99.90
11656;DHT22;5884;43.618;1.438;2023-12-20T15:25:07;8.70;99.90
11656;DHT22;5884;43.618;1.438;2023-12-20T15:27:35;8.80;99.90
11656;DHT22;5884;43.618;1.438;2023-12-20T15:30:04;8.70;99.90
11656;DHT22;5884;43.618;1.438;2023-12-20T15:32:32;8.70;99.90
11656;DHT22;5884;43.618;1.438;2023-12-20T15:35:02;8.70;99.90
11656;DHT22;5884;43.618;1.438;2023-12-20T15:37:29;8.70;99.90
11656;DHT22;5884;43.618;1.438;2023-12-20T15:39:58;8.70;99.90
11656;DHT22;5884;43.618;1.438;2023-12-20T15:42:26;8.70;99.90
11656;DHT22;5884;43.618;1.438;2023-12-20T15:44:53;8.70;99.90
11656;DHT22;5884;43.618;1.438;2023-12-20T15:47:20;8.70;99.90
11656;DHT22;5884;43.618;1.438;2023-12-20T15:49:47;8.60;99.90
11656;DHT22;5884;43.618;1.438;2023-12-20T15:52:15;8.60;99.90
11656;DHT22;5884;43.618;1.438;2023-12-20T15:54:42;8.60;99.90
11656;DHT22;5884;43.618;1.438;2023-12-20T15:57:11;8.60;99.90
11656;DHT22;5884;43.618;1.438;2023-12-20T15:59:41;8.60;99.90
11656;DHT22;5884;43.618;1.438;2023-12-20T16:02:08;8.60;99.90
11656;DHT22;5884;43.618;1.438;2023-12-20T16:04:35;8.50;99.90
11656;DHT22;5884;43.618;1.438;2023-12-20T16:07:03;8.50;99.90
11656;DHT22;5884;43.618;1.438;2023-12-20T16:09:30;8.40;99.90
11656;DHT22;5884;43.618;1.438;2023-12-20T16:11:57;8.40;99.90
11656;DHT22;5884;43.618;1.438;2023-12-20T16:14:26;8.40;99.90
11656;DHT22;5884;43.618;1.438;2023-12-20T16:16:55;8.40;99.90
11656;DHT22;5884;43.618;1.438;2023-12-20T16:19:22;8.30;99.90
11656;DHT22;5884;43.618;1.438;2023-12-20T16:21:49;8.30;99.90
11656;DHT22;5884;43.618;1.438;2023-12-20T16:24:16;8.30;99.90
11656;DHT22;5884;43.618;1.438;2023-12-20T16:26:43;8.30;99.90
11656;DHT22;5884;43.618;1.438;2023-12-20T16:29:11;8.30;99.90
11656;DHT22;5884;43.618;1.438;2023-12-20T16:31:40;8.30;99.90
11656;DHT22;5884;43.618;1.438;2023-12-20T16:34:07;8.30;99.90
11656;DHT22;5884;43.618;1.438;2023-12-20T16:36:49;8.30;99.90
11656;DHT22;5884;43.618;1.438;2023-12-20T16:39:18;8.30;99.90
11656;DHT22;5884;43.618;1.438;2023-12-20T16:41:46;8.30;99.90
11656;DHT22;5884;43.618;1.438;2023-12-20T16:44:13;8.30;99.90
11656;DHT22;5884;43.618;1.438;2023-12-20T16:46:42;8.30;99.90
11656;DHT22;5884;43.618;1.438;2023-12-20T16:49:09;8.30;99.90
11656;DHT22;5884;43.618;1.438;2023-12-20T16:51:37;8.30;99.90
11656;DHT22;5884;43.618;1.438;2023-12-20T16:54:04;8.30;99.90
11656;DHT22;5884;43.618;1.438;2023-12-20T16:56:31;8.20;99.90
11656;DHT22;5884;43.618;1.438;2023-12-20T16:58:59;8.20;99.90
11656;DHT22;5884;43.618;1.438;2023-12-20T17:01:26;8.20;99.90
11656;DHT22;5884;43.618;1.438;2023-12-20T17:03:56;8.20;99.90
11656;DHT22;5884;43.618;1.438;2023-12-20T17:06:23;8.20;99.90
11656;DHT22;5884;43.618;1.438;2023-12-20T17:08:50;8.10;99.90
11656;DHT22;5884;43.618;1.438;2023-12-20T17:11:18;8.10;99.90
11656;DHT22;5884;43.618;1.438;2023-12-20T17:13:46;8.00;99.90
11656;DHT22;5884;43.618;1.438;2023-12-20T17:16:14;8.00;99.90
11656;DHT22;5884;43.618;1.438;2023-12-20T17:18:41;7.90;99.90
11656;DHT22;5884;43.618;1.438;2023-12-20T17:21:13;7.80;99.90
11656;DHT22;5884;43.618;1.438;2023-12-20T17:23:40;7.80;99.90
11656;DHT22;5884;43.618;1.438;2023-12-20T17:26:08;7.80;99.90
11656;DHT22;5884;43.618;1.438;2023-12-20T17:28:35;7.80;99.90
11656;DHT22;5884;43.618;1.438;2023-12-20T17:31:02;7.80;99.90
11656;DHT22;5884;43.618;1.438;2023-12-20T17:33:30;7.70;99.90
11656;DHT22;5884;43.618;1.438;2023-12-20T17:35:57;7.80;99.90
11656;DHT22;5884;43.618;1.438;2023-12-20T17:38:26;7.70;99.90
11656;DHT22;5884;43.618;1.438;2023-12-20T17:40:53;7.80;99.90
11656;DHT22;5884;43.618;1.438;2023-12-20T17:43:20;7.70;99.90
11656;DHT22;5884;43.618;1.438;2023-12-20T17:45:47;7.80;99.90
11656;DHT22;5884;43.618;1.438;2023-12-20T17:48:15;7.80;99.90
11656;DHT22;5884;43.618;1.438;2023-12-20T17:50:42;7.80;99.90
11656;DHT22;5884;43.618;1.438;2023-12-20T17:53:10;7.80;99.90
11656;DHT22;5884;43.618;1.438;2023-12-20T17:55:38;7.80;99.90
11656;DHT22;5884;43.618;1.438;2023-12-20T17:58:05;7.80;99.90
11656;DHT22;5884;43.618;1.438;2023-12-20T18:00:34;7.80;99.90
11656;DHT22;5884;43.618;1.438;2023-12-20T18:03:02;7.80;99.90
11656;DHT22;5884;43.618;1.438;2023-12-20T18:05:29;7.80;99.90
11656;DHT22;5884;43.618;1.438;2023-12-20T18:07:57;7.80;99.90
11656;DHT22;5884;43.618;1.438;2023-12-20T18:10:24;7.80;99.90
11656;DHT22;5884;43.618;1.438;2023-12-20T18:12:52;7.80;99.90
11656;DHT22;5884;43.618;1.438;2023-12-20T18:15:21;7.80;99.90
11656;DHT22;5884;43.618;1.438;2023-12-20T18:17:48;7.70;99.90
11656;DHT22;5884;43.618;1.438;2023-12-20T18:20:15;7.70;99.90
11656;DHT22;5884;43.618;1.438;2023-12-20T18:22:43;7.70;99.90
11656;DHT22;5884;43.618;1.438;2023-12-20T18:25:10;7.70;99.90
11656;DHT22;5884;43.618;1.438;2023-12-20T18:27:38;7.70;99.90
11656;DHT22;5884;43.618;1.438;2023-12-20T18:30:07;7.70;99.90
11656;DHT22;5884;43.618;1.438;2023-12-20T18:32:35;7.70;99.90
11656;DHT22;5884;43.618;1.438;2023-12-20T18:35:03;7.70;99.90
11656;DHT22;5884;43.618;1.438;2023-12-20T18:37:30;7.60;99.90
11656;DHT22;5884;43.618;1.438;2023-12-20T18:40:00;7.60;99.90
11656;DHT22;5884;43.618;1.438;2023-12-20T18:42:28;7.60;99.90
11656;DHT22;5884;43.618;1.438;2023-12-20T18:44:55;7.60;99.90
11656;DHT22;5884;43.618;1.438;2023-12-20T18:47:23;7.60;99.90
11656;DHT22;5884;43.618;1.438;2023-12-20T18:49:51;7.50;99.90
11656;DHT22;5884;43.618;1.438;2023-12-20T18:52:18;7.50;99.90
11656;DHT22;5884;43.618;1.438;2023-12-20T18:54:45;7.60;99.90
11656;DHT22;5884;43.618;1.438;2023-12-20T18:57:13;7.60;99.90
11656;DHT22;5884;43.618;1.438;2023-12-20T18:59:40;7.60;99.90
11656;DHT22;5884;43.618;1.438;2023-12-20T19:02:07;7.60;99.90
11656;DHT22;5884;43.618;1.438;2023-12-20T19:04:37;7.60;99.90
11656;DHT22;5884;43.618;1.438;2023-12-20T19:07:04;7.60;99.90
11656;DHT22;5884;43.618;1.438;2023-12-20T19:09:31;7.60;99.90
11656;DHT22;5884;43.618;1.438;2023-12-20T19:11:58;7.60;99.90
11656;DHT22;5884;43.618;1.438;2023-12-20T19:14:25;7.60;99.90
11656;DHT22;5884;43.618;1.438;2023-12-20T19:16:53;7.60;99.90
11656;DHT22;5884;43.618;1.438;2023-12-20T19:19:20;7.60;99.90
11656;DHT22;5884;43.618;1.438;2023-12-20T19:21:50;7.60;99.90
11656;DHT22;5884;43.618;1.438;2023-12-20T19:24:17;7.60;99.90
11656;DHT22;5884;43.618;1.438;2023-12-20T19:26:44;7.60;99.90
11656;DHT22;5884;43.618;1.438;2023-12-20T19:29:11;7.60;99.90
11656;DHT22;5884;43.618;1.438;2023-12-20T19:31:38;7.70;99.90
11656;DHT22;5884;43.618;1.438;2023-12-20T19:34:05;7.70;99.90
11656;DHT22;5884;43.618;1.438;2023-12-20T19:36:32;7.70;99.90
11656;DHT22;5884;43.618;1.438;2023-12-20T19:39:01;7.60;99.90
11656;DHT22;5884;43.618;1.438;2023-12-20T19:41:28;7.60;99.90
11656;DHT22;5884;43.618;1.438;2023-12-20T19:43:55;7.60;99.90
11656;DHT22;5884;43.618;1.438;2023-12-20T19:46:23;7.60;99.90
11656;DHT22;5884;43.618;1.438;2023-12-20T19:48:51;7.60;99.90
11656;DHT22;5884;43.618;1.438;2023-12-20T19:51:19;7.50;99.90
11656;DHT22;5884;43.618;1.438;2023-12-20T19:53:46;7.50;99.90
11656;DHT22;5884;43.618;1.438;2023-12-20T19:56:15;7.40;99.90
11656;DHT22;5884;43.618;1.438;2023-12-20T19:58:42;7.40;99.90
11656;DHT22;5884;43.618;1.438;2023-12-20T20:01:09;7.30;99.90
11656;DHT22;5884;43.618;1.438;2023-12-20T20:03:37;7.30;99.90
11656;DHT22;5884;43.618;1.438;2023-12-20T20:06:05;7.40;99.90
11656;DHT22;5884;43.618;1.438;2023-12-20T20:08:32;7.40;99.90
11656;DHT22;5884;43.618;1.438;2023-12-20T20:10:59;7.40;99.90
11656;DHT22;5884;43.618;1.438;2023-12-20T20:13:28;7.30;99.90
11656;DHT22;5884;43.618;1.438;2023-12-20T20:15:55;7.40;99.90
11656;DHT22;5884;43.618;1.438;2023-12-20T20:18:22;7.30;99.90
11656;DHT22;5884;43.618;1.438;2023-12-20T20:20:49;7.30;99.90
11656;DHT22;5884;43.618;1.438;2023-12-20T20:23:16;7.20;99.90
11656;DHT22;5884;43.618;1.438;2023-12-20T20:25:44;7.10;99.90
11656;DHT22;5884;43.618;1.438;2023-12-20T20:28:12;7.10;99.90
11656;DHT22;5884;43.618;1.438;2023-12-20T20:30:41;7.10;99.90
11656;DHT22;5884;43.618;1.438;2023-12-20T20:33:08;7.10;99.90
11656;DHT22;5884;43.618;1.438;2023-12-20T20:35:35;7.20;99.90
11656;DHT22;5884;43.618;1.438;2023-12-20T20:38:03;7.20;99.90
11656;DHT22;5884;43.618;1.438;2023-12-20T20:40:30;7.30;99.90
11656;DHT22;5884;43.618;1.438;2023-12-20T20:42:57;7.30;99.90
11656;DHT22;5884;43.618;1.438;2023-12-20T20:45:25;7.30;99.90
11656;DHT22;5884;43.618;1.438;2023-12-20T20:47:53;7.30;99.90
11656;DHT22;5884;43.618;1.438;2023-12-20T20:50:20;7.40;99.90
11656;DHT22;5884;43.618;1.438;2023-12-20T20:52:47;7.40;99.90
11656;DHT22;5884;43.618;1.438;2023-12-20T20:55:15;7.40;99.90
11656;DHT22;5884;43.618;1.438;2023-12-20T20:57:42;7.40;99.90
11656;DHT22;5884;43.618;1.438;2023-12-20T21:00:14;7.40;99.90
11656;DHT22;5884;43.618;1.438;2023-12-20T21:02:44;7.40;99.90
11656;DHT22;5884;43.618;1.438;2023-12-20T21:05:13;7.40;99.90
11656;DHT22;5884;43.618;1.438;2023-12-20T21:07:40;7.50;99.90
11656;DHT22;5884;43.618;1.438;2023-12-20T21:10:10;7.50;99.90
11656;DHT22;5884;43.618;1.438;2023-12-20T21:12:37;7.40;99.90
11656;DHT22;5884;43.618;1.438;2023-12-20T21:15:05;7.50;99.90
11656;DHT22;5884;43.618;1.438;2023-12-20T21:17:33;7.50;99.90
11656;DHT22;5884;43.618;1.438;2023-12-20T21:20:00;7.50;99.90
11656;DHT22;5884;43.618;1.438;2023-12-20T21:22:28;7.50;99.90
11656;DHT22;5884;43.618;1.438;2023-12-20T21:24:55;7.50;99.90
11656;DHT22;5884;43.618;1.438;2023-12-20T21:27:23;7.50;99.90
11656;DHT22;5884;43.618;1.438;2023-12-20T21:29:50;7.50;99.90
11656;DHT22;5884;43.618;1.438;2023-12-20T21:32:17;7.50;99.90
11656;DHT22;5884;43.618;1.438;2023-12-20T21:34:44;7.50;99.90
11656;DHT22;5884;43.618;1.438;2023-12-20T21:37:11;7.50;99.90
11656;DHT22;5884;43.618;1.438;2023-12-20T21:39:40;7.50;99.90
11656;DHT22;5884;43.618;1.438;2023-12-20T21:42:07;7.50;99.90
11656;DHT22;5884;43.618;1.438;2023-12-20T21:44:34;7.50;99.90
11656;DHT22;5884;43.618;1.438;2023-12-20T21:47:02;7.40;99.90
11656;DHT22;5884;43.618;1.438;2023-12-20T21:49:29;7.50;99.90